Time;durP1;ratioP1;P1;durP2;ratioP2;P2;SDS_P1;SDS_P2;PMS_P1;PMS_P2;Temp;Humidity;BMP_temperature;BMP_pressure;BME280_temperature;BME280_humidity;BME280_pressure;Samples;Min_cycle;Max_cycle;Signal;HPM_P1;HPM_P2
2023/07/18 00:02:27;;;;;;;8.98;3.28;;;;;;;18.57;76.24;100118.81;10371520;28;20409;-71
2023/07/18 00:07:28;;;;;;;7.70;3.22;;;;;;;18.77;76.28;100167.03;10386730;28;20044;-71
2023/07/18 00:12:28;;;;;;;6.80;3.22;;;;;;;18.51;76.64;100138.53;10372071;28;20038;-72
2023/07/18 00:17:31;;;;;;;8.55;3.63;;;;;;;18.19;76.91;100122.56;10372613;28;20116;-72
2023/07/18 00:22:32;;;;;;;8.25;3.10;;;;;;;18.34;77.22;100156.34;10370241;28;20038;-71
2023/07/18 00:27:33;;;;;;;9.48;3.33;;;;;;;18.11;77.96;100135.47;10371081;28;20046;-71
2023/07/18 00:32:35;;;;;;;11.13;3.08;;;;;;;17.65;78.60;100064.16;10371509;28;20100;-72
2023/07/18 00:37:36;;;;;;;14.90;3.60;;;;;;;18.02;78.64;100138.44;10371800;28;20409;-74
2023/07/18 00:42:38;;;;;;;11.38;3.35;;;;;;;18.06;79.34;100154.94;10371292;28;20042;-73
2023/07/18 00:47:45;;;;;;;8.32;3.30;;;;;;;18.02;79.79;100170.69;10372686;28;20129;-73
2023/07/18 00:52:48;;;;;;;7.32;3.42;;;;;;;17.97;80.01;100167.84;10378970;28;20552;-73
2023/07/18 00:57:49;;;;;;;9.02;3.63;;;;;;;17.90;79.90;100142.09;10393973;28;20052;-73
2023/07/18 01:02:50;;;;;;;11.02;3.10;;;;;;;17.43;80.25;100077.16;10393893;28;20506;-73
2023/07/18 01:07:51;;;;;;;9.32;3.55;;;;;;;17.76;80.24;100152.91;10377308;28;20132;-73
2023/07/18 01:12:53;;;;;;;32.05;4.50;;;;;;;17.76;80.64;100152.09;10377784;28;20099;-73
2023/07/18 01:17:53;;;;;;;15.95;4.50;;;;;;;17.67;80.76;100161.47;10392876;28;20065;-73
2023/07/18 01:22:58;;;;;;;21.00;4.22;;;;;;;17.67;81.85;100169.53;10377027;28;20054;-74
2023/07/18 01:28:01;;;;;;;28.38;5.63;;;;;;;17.72;81.42;100161.63;10376728;28;20041;-73
2023/07/18 01:33:02;;;;;;;25.67;4.67;;;;;;;17.62;81.17;100146.03;10376398;28;20038;-73
2023/07/18 01:38:03;;;;;;;18.38;5.10;;;;;;;17.02;81.57;100062.38;10376317;28;20062;-73
2023/07/18 01:43:04;;;;;;;33.88;5.55;;;;;;;17.02;81.57;100073.97;10376490;28;20034;-73
2023/07/18 01:48:05;;;;;;;17.08;4.40;;;;;;;17.38;81.84;100147.66;10376731;28;20049;-72
2023/07/18 01:53:06;;;;;;;27.05;4.70;;;;;;;16.72;82.16;100033.47;10376017;28;20038;-73
2023/07/18 01:58:07;;;;;;;14.07;4.10;;;;;;;16.99;82.27;100068.19;10386639;28;20501;-72
2023/07/18 02:03:07;;;;;;;11.18;4.13;;;;;;;17.39;82.19;100137.72;10416397;28;20096;-73
2023/07/18 02:08:08;;;;;;;9.27;4.00;;;;;;;17.31;82.17;100114.63;10413719;28;20041;-73
2023/07/18 02:13:09;;;;;;;16.42;3.95;;;;;;;17.63;82.17;100144.16;10413271;28;20045;-73
2023/07/18 02:18:10;;;;;;;27.75;4.65;;;;;;;17.79;81.81;100170.50;10415344;28;20065;-73
2023/07/18 02:23:11;;;;;;;20.35;4.65;;;;;;;17.94;82.12;100173.66;10414953;28;20199;-73
2023/07/18 02:28:12;;;;;;;26.10;4.88;;;;;;;17.84;82.00;100137.59;10415485;28;20425;-73
2023/07/18 02:33:13;;;;;;;13.43;4.22;;;;;;;18.37;82.08;100172.84;10415090;28;20144;-73
2023/07/18 02:38:14;;;;;;;14.60;3.55;;;;;;;18.41;81.56;100132.88;10415466;28;20041;-73
2023/07/18 02:43:15;;;;;;;6.90;3.28;;;;;;;18.79;80.57;100107.63;10414641;28;20061;-73
2023/07/18 02:48:16;;;;;;;8.48;3.30;;;;;;;20.13;78.19;100171.84;10385281;28;20191;-73
2023/07/18 02:53:16;;;;;;;12.70;3.30;;;;;;;21.05;74.70;100142.19;10373839;28;20073;-73
2023/07/18 02:58:17;;;;;;;4.30;2.63;;;;;;;22.11;70.78;100109.06;10373156;28;20482;-74
2023/07/18 03:03:18;;;;;;;7.97;3.20;;;;;;;22.98;67.37;100086.59;10374093;28;20125;-74
2023/07/18 03:08:19;;;;;;;17.65;3.35;;;;;;;24.01;64.58;100100.94;10373617;28;20034;-74
2023/07/18 03:13:20;;;;;;;19.45;3.30;;;;;;;24.99;61.40;100098.34;10372157;28;20092;-74
2023/07/18 03:18:21;;;;;;;28.40;4.88;;;;;;;25.98;58.97;100128.00;10372604;28;20088;-74
2023/07/18 03:23:22;;;;;;;8.73;3.22;;;;;;;26.64;56.88;100132.44;10373408;28;20053;-75
2023/07/18 03:28:23;;;;;;;22.42;3.67;;;;;;;27.34;54.88;100126.03;10373056;28;20525;-77
2023/07/18 03:33:24;;;;;;;10.23;3.22;;;;;;;27.91;53.46;100149.03;10404236;28;20132;-74
2023/07/18 03:38:24;;;;;;;9.35;2.67;;;;;;;27.61;53.33;100100.97;10410948;28;20087;-74
2023/07/18 03:43:25;;;;;;;12.15;3.08;;;;;;;28.32;50.80;100097.50;10411904;28;20128;-75
2023/07/18 03:48:26;;;;;;;8.90;3.05;;;;;;;28.50;50.25;100114.25;10413273;28;20520;-75
2023/07/18 03:53:27;;;;;;;10.85;3.35;;;;;;;29.01;49.49;100163.56;10410176;28;20040;-74
2023/07/18 03:58:27;;;;;;;13.07;3.17;;;;;;;29.41;48.30;100153.19;10418126;28;20048;-75
2023/07/18 04:03:28;;;;;;;13.52;3.25;;;;;;;29.89;47.00;100168.56;10427833;28;20037;-74
2023/07/18 04:08:29;;;;;;;11.57;3.10;;;;;;;29.97;45.78;100072.78;10415930;28;20051;-77
2023/07/18 04:13:30;;;;;;;12.77;3.00;;;;;;;30.84;44.94;100172.50;10431165;28;20072;-75
2023/07/18 04:18:31;;;;;;;6.10;2.80;;;;;;;30.40;44.63;100154.72;10403091;28;20054;-74
2023/07/18 04:23:32;;;;;;;11.27;3.17;;;;;;;30.01;44.79;100101.22;10396904;28;20119;-75
2023/07/18 04:28:36;;;;;;;5.90;3.17;;;;;;;30.90;43.18;100171.25;10415733;28;20048;-72
2023/07/18 04:33:39;;;;;;;7.55;2.83;;;;;;;31.05;42.39;100153.63;10417230;28;20124;-73
2023/07/18 04:38:41;;;;;;;9.27;2.80;;;;;;;31.52;42.12;100169.84;10420904;28;20046;-73
2023/07/18 04:43:41;;;;;;;7.93;2.70;;;;;;;31.44;41.03;100157.69;10418981;28;20064;-73
2023/07/18 04:48:42;;;;;;;8.68;2.60;;;;;;;31.12;41.27;100099.13;10419158;28;20333;-75
2023/07/18 04:53:43;;;;;;;6.90;2.72;;;;;;;31.42;40.81;100148.94;10419558;28;20037;-75
2023/07/18 04:58:43;;;;;;;6.80;2.63;;;;;;;31.44;40.75;100154.09;10419318;28;20056;-75
2023/07/18 05:03:44;;;;;;;10.90;2.30;;;;;;;30.66;40.12;100088.38;10417999;28;20091;-75
2023/07/18 05:08:45;;;;;;;6.85;2.25;;;;;;;30.68;40.28;100147.28;10418217;28;20107;-75
2023/07/18 05:13:46;;;;;;;7.70;2.83;;;;;;;29.69;41.78;100052.81;10418239;28;20044;-75
2023/07/18 05:18:47;;;;;;;8.35;2.80;;;;;;;29.96;41.69;100142.38;10418416;28;20053;-75
2023/07/18 05:23:47;;;;;;;8.75;2.50;;;;;;;29.29;41.58;100087.16;10417812;28;20041;-74
2023/07/18 05:28:48;;;;;;;6.03;2.60;;;;;;;28.36;42.66;99993.91;10418115;28;20049;-74
2023/07/18 05:33:49;;;;;;;8.85;2.40;;;;;;;29.09;42.73;100135.59;10417037;28;20091;-75
2023/07/18 05:38:50;;;;;;;13.57;2.80;;;;;;;29.00;43.10;100118.22;10418239;28;20525;-74
2023/07/18 05:43:51;;;;;;;9.40;2.17;;;;;;;29.23;43.47;100129.41;10417894;28;20119;-75
2023/07/18 05:48:52;;;;;;;5.45;2.20;;;;;;;29.36;42.34;100145.03;10417322;28;20045;-75
2023/07/18 05:53:53;;;;;;;8.32;2.45;;;;;;;28.88;42.51;100068.63;10416617;28;20520;-75
2023/07/18 05:58:54;;;;;;;5.45;2.22;;;;;;;28.83;41.88;100082.38;10416935;28;20049;-74
2023/07/18 06:03:56;;;;;;;6.68;2.40;;;;;;;28.56;42.41;100018.25;10417173;28;20041;-74
2023/07/18 06:08:57;;;;;;;3.70;2.17;;;;;;;29.25;41.35;100099.81;10416665;28;20489;-75
2023/07/18 06:13:59;;;;;;;7.18;2.33;;;;;;;29.53;41.36;100122.63;10415893;28;20412;-75
2023/07/18 06:19:00;;;;;;;6.73;2.20;;;;;;;29.48;40.84;100118.03;10415862;28;20064;-75
2023/07/18 06:24:00;;;;;;;4.53;2.40;;;;;;;29.33;40.15;100101.88;10415257;28;20047;-75
2023/07/18 06:29:01;;;;;;;6.43;2.40;;;;;;;29.50;40.63;100095.84;10416649;28;20045;-74
2023/07/18 06:34:02;;;;;;;5.07;2.30;;;;;;;29.31;39.52;100044.69;10415607;28;20041;-74
2023/07/18 06:39:05;;;;;;;6.75;2.42;;;;;;;29.90;38.96;100110.75;10415360;28;20045;-74
2023/07/18 06:44:07;;;;;;;8.07;2.00;;;;;;;29.50;38.56;100054.78;10414734;28;20038;-75
2023/07/18 06:49:08;;;;;;;3.57;2.10;;;;;;;29.98;38.44;100111.97;10415236;28;20033;-76
2023/07/18 06:54:09;;;;;;;8.98;2.38;;;;;;;29.87;38.23;100094.09;10414205;28;20276;-74
2023/07/18 06:59:10;;;;;;;5.82;2.25;;;;;;;30.08;37.84;100070.69;10414589;28;20111;-74
2023/07/18 07:04:11;;;;;;;5.75;2.05;;;;;;;30.51;37.03;100097.75;10413950;28;20144;-74
2023/07/18 07:09:13;;;;;;;10.93;2.28;;;;;;;30.37;36.15;100088.75;10415151;28;20048;-76
2023/07/18 07:14:14;;;;;;;3.20;2.00;;;;;;;30.66;35.87;100100.19;10413674;28;20034;-74
2023/07/18 07:19:15;;;;;;;4.72;2.25;;;;;;;30.29;36.25;100084.00;10413353;28;20123;-74
2023/07/18 07:24:15;;;;;;;5.40;2.20;;;;;;;30.18;36.31;100097.03;10413235;28;20096;-74
2023/07/18 07:29:16;;;;;;;6.43;2.40;;;;;;;30.41;36.20;100097.97;10413185;28;20044;-75
2023/07/18 07:34:17;;;;;;;6.40;1.92;;;;;;;30.07;36.06;100060.03;10413985;28;20049;-74
2023/07/18 07:39:17;;;;;;;5.93;2.30;;;;;;;30.53;35.41;100084.56;10413502;28;20041;-74
2023/07/18 07:44:18;;;;;;;3.65;2.20;;;;;;;30.61;35.38;100085.78;10413322;28;20354;-74
2023/07/18 07:49:20;;;;;;;4.82;2.30;;;;;;;30.68;34.64;100061.47;10413817;28;20501;-74
2023/07/18 07:54:21;;;;;;;7.28;2.00;;;;;;;30.90;33.94;100061.53;10413049;28;20041;-74
2023/07/18 07:59:22;;;;;;;4.13;1.90;;;;;;;31.10;34.16;100067.66;10417708;28;20415;-75
2023/07/18 08:04:23;;;;;;;3.20;2.08;;;;;;;31.16;34.20;100052.69;10421415;28;20045;-75
2023/07/18 08:09:23;;;;;;;7.00;2.30;;;;;;;31.06;34.05;100026.31;10421381;28;20124;-74
2023/07/18 08:14:24;;;;;;;3.00;1.90;;;;;;;30.99;33.59;100041.56;10420986;28;20045;-74
2023/07/18 08:19:26;;;;;;;6.05;2.28;;;;;;;31.22;33.76;100045.13;10420590;28;20532;-76
2023/07/18 08:24:26;;;;;;;8.27;2.00;;;;;;;30.71;33.63;100047.16;10420680;28;20049;-75
2023/07/18 08:29:30;;;;;;;3.15;1.95;;;;;;;30.99;33.50;100041.56;10419981;28;20037;-74
2023/07/18 08:34:30;;;;;;;3.67;2.25;;;;;;;30.96;33.48;99988.16;10420582;28;20136;-75
2023/07/18 08:39:31;;;;;;;7.00;2.53;;;;;;;31.24;33.73;100038.22;10420233;28;20382;-74
2023/07/18 08:44:35;;;;;;;6.43;1.98;;;;;;;31.40;32.20;100018.63;10419341;28;20037;-75
2023/07/18 08:49:38;;;;;;;5.65;2.00;;;;;;;31.34;31.23;99968.50;10419195;28;20052;-75
2023/07/18 08:54:39;;;;;;;5.65;2.00;;;;;;;31.46;32.22;99946.00;10418986;28;20103;-75
2023/07/18 08:59:39;;;;;;;4.85;2.08;;;;;;;31.68;31.64;99945.91;10419426;28;20512;-74
2023/07/18 09:04:40;;;;;;;3.15;1.90;;;;;;;32.19;31.10;99998.53;10418473;28;20440;-75
2023/07/18 09:09:47;;;;;;;4.68;1.88;;;;;;;32.59;30.92;100007.50;10417453;28;20037;-75
2023/07/18 09:14:55;;;;;;;4.57;2.30;;;;;;;32.50;30.50;99965.47;10419334;28;20099;-75
2023/07/18 09:19:56;;;;;;;5.30;2.05;;;;;;;32.02;30.89;100004.84;10416928;28;20065;-73
2023/07/18 09:24:57;;;;;;;4.03;2.00;;;;;;;31.99;31.21;99981.56;10418188;28;20041;-73
2023/07/18 09:29:57;;;;;;;4.72;1.92;;;;;;;31.80;30.88;99918.66;10417597;28;20083;-78
2023/07/18 09:34:59;;;;;;;7.45;2.25;;;;;;;31.96;30.72;99921.75;10418543;28;20041;-73
2023/07/18 09:40:01;;;;;;;4.40;2.20;;;;;;;32.72;30.65;99987.28;10417849;28;20060;-73
2023/07/18 09:45:04;;;;;;;6.33;2.00;;;;;;;32.32;30.20;99911.59;10418912;28;20045;-75
2023/07/18 09:50:04;;;;;;;;;;;;;;;32.89;31.38;99991.94;10401556;28;20379;-76
2023/07/18 09:55:11;;;;;;;3.97;1.92;;;;;;;31.78;30.77;99937.38;10404360;28;20431;-76
2023/07/18 10:00:15;;;;;;;9.73;2.05;;;;;;;31.31;31.72;99977.38;10407603;28;20045;-75
2023/07/18 10:05:16;;;;;;;3.40;2.13;;;;;;;30.72;31.50;99966.50;10423983;28;20132;-75
2023/07/18 10:10:17;;;;;;;7.90;2.00;;;;;;;31.14;32.16;99945.16;10408077;28;20475;-73
2023/07/18 10:15:18;;;;;;;5.60;2.30;;;;;;;31.81;31.13;99909.25;10413050;28;20048;-78
2023/07/18 10:20:30;;;;;;;7.97;1.90;;;;;;;33.06;30.21;99974.63;10408958;28;20058;-76
2023/07/18 10:25:32;;;;;;;2.85;1.77;;;;;;;32.74;29.64;99965.75;10391220;28;20115;-75
2023/07/18 10:30:42;;;;;;;4.90;2.20;;;;;;;32.34;31.12;99958.78;10378552;28;20045;-77
2023/07/18 10:35:43;;;;;;;5.18;1.80;;;;;;;31.60;30.50;99902.75;10374151;28;20104;-76
2023/07/18 10:40:44;;;;;;;5.10;1.90;;;;;;;32.03;30.92;99915.78;10396329;28;20060;-77
2023/07/18 10:45:45;;;;;;;4.65;2.38;;;;;;;31.40;30.89;99882.19;10415035;28;20041;-76
2023/07/18 10:50:48;;;;;;;4.28;2.00;;;;;;;30.99;31.35;99907.16;10397623;28;20054;-75
2023/07/18 10:55:49;;;;;;;8.77;2.00;;;;;;;30.75;31.63;99891.84;10374081;28;20042;-76
2023/07/18 11:00:50;;;;;;;3.90;2.22;;;;;;;30.71;32.00;99921.81;10382219;28;20438;-76
2023/07/18 11:05:52;;;;;;;8.57;2.10;;;;;;;31.11;32.41;99893.66;10397884;28;20533;-76
2023/07/18 11:10:59;;;;;;;6.33;2.10;;;;;;;31.34;32.03;99859.56;10405789;28;20049;-75
2023/07/18 11:16:04;;;;;;;6.53;2.30;;;;;;;31.42;33.03;99912.09;10406783;28;20102;-74
2023/07/18 11:21:06;;;;;;;11.90;2.13;;;;;;;31.95;33.24;99919.31;10395757;28;20472;-74
2023/07/18 11:26:17;;;;;;;;;;;;;;;32.11;32.87;99922.44;10410955;28;20053;-73
2023/07/18 11:31:32;;;;;;;5.38;2.25;;;;;;;31.38;34.29;99882.53;10412735;28;19924;-75
2023/07/18 11:36:37;;;;;;;5.75;2.28;;;;;;;31.45;33.91;99938.91;10404062;28;20077;-74
2023/07/18 11:41:40;;;;;;;5.55;2.00;;;;;;;31.71;33.59;99914.25;10393475;28;20045;-74
2023/07/18 11:46:42;;;;;;;9.20;2.33;;;;;;;31.91;33.27;99877.16;10372593;28;20038;-75
2023/07/18 11:51:43;;;;;;;6.18;2.53;;;;;;;32.42;32.75;99901.06;10372517;28;20042;-74
2023/07/18 11:56:45;;;;;;;5.70;2.10;;;;;;;32.61;32.73;99894.44;10372234;28;21964;-74
2023/07/18 12:01:46;;;;;;;4.90;2.30;;;;;;;32.48;32.05;99899.78;10372024;28;20037;-73
2023/07/18 12:06:49;;;;;;;7.03;2.10;;;;;;;32.44;32.18;99890.59;10372096;28;20041;-73
2023/07/18 12:11:50;;;;;;;6.72;2.40;;;;;;;32.21;32.87;99818.47;10395280;28;20513;-73
2023/07/18 12:16:51;;;;;;;6.05;2.45;;;;;;;32.67;32.11;99882.16;10400021;28;20048;-73
2023/07/18 12:21:52;;;;;;;12.07;2.20;;;;;;;32.34;31.84;99824.09;10397477;28;20057;-75
2023/07/18 12:26:53;;;;;;;11.82;2.40;;;;;;;32.26;32.00;99817.50;10402423;28;20041;-75
2023/07/18 12:31:53;;;;;;;5.32;2.58;;;;;;;32.18;32.09;99802.63;10388874;28;20401;-75
2023/07/18 12:36:54;;;;;;;5.18;2.40;;;;;;;32.47;32.05;99839.66;10389419;28;20045;-77
2023/07/18 12:41:55;;;;;;;9.48;2.30;;;;;;;32.58;32.06;99871.16;10392143;28;20052;-76
2023/07/18 12:46:56;;;;;;;7.57;2.30;;;;;;;32.34;31.78;99855.16;10416595;28;20053;-75
2023/07/18 12:51:56;;;;;;;11.50;2.53;;;;;;;32.25;31.90;99815.91;10440227;28;20083;-74
2023/07/18 12:56:58;;;;;;;5.88;2.28;;;;;;;32.39;31.45;99807.44;10439340;28;20048;-73
2023/07/18 13:01:58;;;;;;;4.30;2.10;;;;;;;31.82;31.56;99710.38;10435395;28;20527;-74
2023/07/18 13:06:59;;;;;;;5.28;2.15;;;;;;;32.47;31.38;99831.41;10448080;28;20033;-74
2023/07/18 13:12:00;;;;;;;5.15;2.00;;;;;;;31.51;31.58;99757.25;10427742;28;20140;-74
2023/07/18 13:17:01;;;;;;;6.28;2.47;;;;;;;31.73;31.86;99805.69;10441827;28;20037;-73
2023/07/18 13:22:02;;;;;;;5.75;2.10;;;;;;;32.24;31.01;99822.50;10431703;28;20485;-75
2023/07/18 13:27:03;;;;;;;4.60;2.03;;;;;;;32.51;30.48;99826.84;10455419;28;20400;-76
2023/07/18 13:32:06;;;;;;;7.03;2.28;;;;;;;32.40;30.69;99793.38;10444356;28;20083;-74
2023/07/18 13:37:07;;;;;;;8.77;2.28;;;;;;;32.26;30.71;99730.34;10437372;28;20515;-74
2023/07/18 13:42:08;;;;;;;7.25;2.22;;;;;;;32.99;30.57;99803.72;10435832;28;20069;-72
2023/07/18 13:47:09;;;;;;;4.70;1.83;;;;;;;33.23;30.20;99803.09;10425504;28;20041;-73
2023/07/18 13:52:10;;;;;;;4.75;1.90;;;;;;;33.06;30.13;99776.50;10436387;28;20037;-73
2023/07/18 13:57:10;;;;;;;10.85;2.00;;;;;;;32.96;29.32;99785.91;10422874;28;20144;-73
2023/07/18 14:02:11;;;;;;;4.82;1.70;;;;;;;33.13;29.84;99795.25;10409716;28;20041;-72
2023/07/18 14:07:14;;;;;;;8.20;2.05;;;;;;;32.75;29.44;99738.28;10415989;28;20048;-74
2023/07/18 14:12:15;;;;;;;6.45;1.85;;;;;;;32.92;30.00;99776.72;10404225;28;20048;-76
2023/07/18 14:17:16;;;;;;;6.22;2.15;;;;;;;32.91;29.88;99804.56;10435672;28;20524;-74
2023/07/18 14:22:18;;;;;;;6.15;2.00;;;;;;;32.57;30.10;99759.53;10447967;28;20037;-75
2023/07/18 14:27:19;;;;;;;6.20;2.20;;;;;;;32.82;30.60;99799.09;10447234;28;20044;-74
2023/07/18 14:32:20;;;;;;;10.82;2.30;;;;;;;32.76;29.84;99794.91;10456369;28;20059;-76
2023/07/18 14:37:23;;;;;;;10.65;2.08;;;;;;;32.51;30.01;99766.38;10455353;28;20048;-75
2023/07/18 14:42:24;;;;;;;3.90;2.17;;;;;;;32.11;30.73;99783.09;10455122;28;20033;-75
2023/07/18 14:47:27;;;;;;;7.47;2.08;;;;;;;31.84;31.24;99793.25;10455465;28;20053;-75
2023/07/18 14:52:27;;;;;;;;;;;;;;;32.09;30.69;99792.78;10455632;28;20531;-73
2023/07/18 14:57:28;;;;;;;3.75;1.80;;;;;;;31.67;30.60;99776.78;10434672;28;20019;-73
2023/07/18 15:02:29;;;;;;;7.72;1.98;;;;;;;31.48;31.14;99718.66;10375384;28;20038;-73
2023/07/18 15:07:30;;;;;;;26.02;2.85;;;;;;;31.78;31.14;99791.00;10395116;28;20034;-74
2023/07/18 15:12:30;;;;;;;7.20;2.35;;;;;;;31.53;30.78;99774.22;10413800;28;20049;-73
2023/07/18 15:17:45;;;;;;;11.43;2.10;;;;;;;31.57;30.75;99782.59;10414085;28;20068;-74
2023/07/18 15:22:47;;;;;;;6.18;1.98;;;;;;;31.33;31.36;99778.34;10414536;28;20045;-73
2023/07/18 15:27:48;;;;;;;10.82;1.77;;;;;;;31.26;31.22;99786.25;10413233;28;20122;-73
2023/07/18 15:32:49;;;;;;;6.00;1.60;;;;;;;31.13;30.86;99795.41;10413084;28;20049;-73
2023/07/18 15:37:50;;;;;;;6.43;2.10;;;;;;;30.89;31.68;99790.34;10413488;28;20049;-73
2023/07/18 15:42:51;;;;;;;34.17;3.22;;;;;;;30.74;32.15;99805.25;10414042;28;20520;-73
2023/07/18 15:47:52;;;;;;;20.27;2.60;;;;;;;29.77;32.82;99687.19;10412119;28;20041;-72
2023/07/18 15:52:52;;;;;;;20.02;2.50;;;;;;;30.29;33.17;99810.78;10413164;28;20461;-71
2023/07/18 15:57:53;;;;;;;17.02;2.83;;;;;;;29.25;33.27;99684.00;10412251;28;20080;-72
2023/07/18 16:02:54;;;;;;;7.13;2.45;;;;;;;29.69;34.42;99805.63;10413363;28;20042;-72
2023/07/18 16:07:55;;;;;;;51.63;4.28;;;;;;;29.53;34.58;99824.31;10413037;28;20042;-72
2023/07/18 16:12:56;;;;;;;7.85;2.08;;;;;;;29.30;35.02;99821.47;10412879;28;20041;-72
2023/07/18 16:18:02;;;;;;;9.57;2.00;;;;;;;29.04;34.99;99807.50;10412996;28;20448;-72
2023/07/18 16:23:04;;;;;;;3.28;2.10;;;;;;;28.86;35.67;99813.84;10420883;28;20069;-72
2023/07/18 16:28:05;;;;;;;8.23;2.78;;;;;;;28.41;35.81;99787.06;10420430;28;20045;-73
2023/07/18 16:33:06;;;;;;;15.25;4.22;;;;;;;28.29;37.05;99822.22;10419870;28;20045;-73
2023/07/18 16:38:07;;;;;;;105.40;9.07;;;;;;;27.88;39.02;99808.38;10419738;28;20390;-72
2023/07/18 16:43:07;;;;;;;29.20;5.07;;;;;;;27.59;41.06;99822.97;10412062;28;20042;-73
2023/07/18 16:48:08;;;;;;;11.25;3.33;;;;;;;26.76;40.99;99748.72;10420611;28;20086;-72
2023/07/18 16:53:09;;;;;;;23.10;4.55;;;;;;;26.88;43.71;99826.53;10419326;28;20042;-72
2023/07/18 16:58:10;;;;;;;22.48;8.57;;;;;;;26.22;44.23;99771.56;10424099;28;20424;-72
2023/07/18 17:03:11;;;;;;;78.20;25.15;;;;;;;26.27;45.37;99838.78;10439864;28;20041;-73
2023/07/18 17:08:12;;;;;;;62.70;20.55;;;;;;;26.02;46.28;99847.94;10437354;28;20046;-72
2023/07/18 17:13:12;;;;;;;34.10;11.85;;;;;;;25.66;47.62;99838.03;10408148;28;20048;-72
2023/07/18 17:18:13;;;;;;;32.90;7.57;;;;;;;25.60;48.00;99874.53;10379379;28;20115;-72
2023/07/18 17:23:14;;;;;;;55.55;7.18;;;;;;;25.39;49.01;99870.25;10409893;28;20519;-72
2023/07/18 17:28:15;;;;;;;47.28;7.65;;;;;;;24.68;50.89;99787.84;10441364;28;20041;-74
2023/07/18 17:33:15;;;;;;;36.30;5.50;;;;;;;25.00;50.84;99866.25;10440189;28;20060;-72
2023/07/18 17:38:17;;;;;;;55.17;5.60;;;;;;;24.89;51.34;99872.00;10456059;28;20036;-71
2023/07/18 17:43:18;;;;;;;35.00;5.10;;;;;;;24.79;51.91;99878.25;10443748;28;20123;-71
2023/07/18 17:48:19;;;;;;;33.17;5.10;;;;;;;24.11;52.41;99789.75;10443434;28;20175;-70
2023/07/18 17:53:19;;;;;;;26.45;5.07;;;;;;;24.37;52.99;99858.41;10421003;28;20045;-70
2023/07/18 17:58:21;;;;;;;24.27;6.60;;;;;;;24.20;53.95;99857.03;10436797;28;20060;-71
2023/07/18 18:03:22;;;;;;;30.60;5.70;;;;;;;24.05;54.90;99849.69;10447107;28;20048;-70
2023/07/18 18:08:25;;;;;;;16.52;4.28;;;;;;;23.67;55.10;99822.75;10433099;28;20037;-70
2023/07/18 18:13:26;;;;;;;9.02;3.38;;;;;;;23.74;55.36;99868.63;10433731;28;20071;-69
2023/07/18 18:18:30;;;;;;;16.73;3.25;;;;;;;23.58;55.92;99866.94;10436856;28;20088;-70
2023/07/18 18:23:32;;;;;;;11.45;3.03;;;;;;;23.62;56.73;99892.41;10423897;28;20103;-69
2023/07/18 18:28:32;;;;;;;13.02;3.22;;;;;;;23.47;57.22;99887.75;10457654;28;20037;-69
2023/07/18 18:33:33;;;;;;;22.98;2.88;;;;;;;22.92;57.43;99838.41;10429521;28;20045;-68
2023/07/18 18:38:34;;;;;;;18.15;3.85;;;;;;;22.68;58.08;99824.44;10415048;28;20056;-69
2023/07/18 18:43:35;;;;;;;17.52;5.47;;;;;;;23.04;58.61;99895.09;10413999;28;20060;-69
2023/07/18 18:48:35;;;;;;;21.70;5.13;;;;;;;22.40;59.22;99809.31;10414577;28;20048;-69
2023/07/18 18:53:36;;;;;;;28.65;5.72;;;;;;;22.86;59.93;99895.50;10414437;28;20041;-69
2023/07/18 18:58:37;;;;;;;18.00;5.95;;;;;;;22.71;60.26;99879.97;10391313;28;20105;-70
2023/07/18 19:03:38;;;;;;;13.15;5.00;;;;;;;22.68;60.65;99892.13;10375046;28;20045;-70
2023/07/18 19:08:38;;;;;;;13.32;3.65;;;;;;;22.33;60.83;99830.38;10373700;28;20442;-71
2023/07/18 19:13:40;;;;;;;18.58;3.50;;;;;;;22.69;61.34;99890.22;10373019;28;20037;-69
2023/07/18 19:18:40;;;;;;;15.68;3.60;;;;;;;22.43;61.20;99845.88;10372431;28;20066;-70
2023/07/18 19:23:41;;;;;;;11.27;3.42;;;;;;;22.66;61.44;99894.25;10373321;28;20049;-69
2023/07/18 19:28:42;;;;;;;13.93;3.47;;;;;;;22.11;61.38;99817.72;10373551;28;20456;-69
2023/07/18 19:33:43;;;;;;;20.13;3.60;;;;;;;22.48;61.91;99887.34;10372918;28;20053;-69
2023/07/18 19:38:44;;;;;;;9.63;3.35;;;;;;;22.26;62.15;99864.97;10371654;28;20548;-69
2023/07/18 19:43:45;;;;;;;15.43;4.95;;;;;;;22.20;62.08;99863.28;10372419;28;20183;-71
2023/07/18 19:48:46;;;;;;;15.75;6.80;;;;;;;22.23;62.22;99890.66;10403680;28;20051;-69
2023/07/18 19:53:46;;;;;;;24.27;8.18;;;;;;;21.60;62.74;99800.19;10412396;28;20045;-69
2023/07/18 19:58:50;;;;;;;25.35;9.98;;;;;;;21.88;64.66;99864.81;10413539;28;20048;-69
2023/07/18 20:03:50;;;;;;;23.10;8.10;;;;;;;21.35;63.84;99798.78;10414026;28;20050;-69
2023/07/18 20:08:51;;;;;;;22.45;5.70;;;;;;;21.62;64.16;99862.91;10413372;28;20128;-69
2023/07/18 20:13:52;;;;;;;15.55;4.25;;;;;;;21.69;64.84;99887.88;10394601;28;20069;-69
2023/07/18 20:18:53;;;;;;;16.02;3.80;;;;;;;21.50;65.27;99879.25;10370585;28;20068;-69
2023/07/18 20:23:54;;;;;;;17.02;3.40;;;;;;;21.51;65.95;99894.41;10370697;28;20499;-72
2023/07/18 20:28:55;;;;;;;10.18;3.25;;;;;;;21.34;67.15;99897.13;10372817;28;20056;-69
2023/07/18 20:33:56;;;;;;;22.02;3.90;;;;;;;21.08;67.62;99841.13;10372143;28;20037;-70
2023/07/18 20:38:57;;;;;;;16.00;3.78;;;;;;;20.85;67.89;99831.34;10371863;28;20038;-69
2023/07/18 20:43:57;;;;;;;15.77;3.28;;;;;;;21.06;68.38;99871.09;10369945;28;20505;-72
2023/07/18 20:48:58;;;;;;;19.77;4.25;;;;;;;20.75;68.36;99834.72;10370554;28;20052;-70
2023/07/18 20:54:01;;;;;;;12.55;3.72;;;;;;;21.07;69.20;99898.91;10371163;28;20145;-70
2023/07/18 20:59:03;;;;;;;11.17;3.60;;;;;;;20.93;69.30;99890.31;10370916;28;20048;-70
2023/07/18 21:04:04;;;;;;;14.80;3.63;;;;;;;20.97;69.15;99904.97;10372339;28;20041;-70
2023/07/18 21:09:05;;;;;;;13.75;3.55;;;;;;;20.85;69.32;99907.78;10378630;28;20049;-69
2023/07/18 21:14:06;;;;;;;27.38;4.10;;;;;;;20.43;70.08;99846.06;10377467;28;20042;-70
2023/07/18 21:19:08;;;;;;;11.82;3.35;;;;;;;20.31;69.52;99837.22;10376930;28;20061;-70
2023/07/18 21:24:08;;;;;;;16.50;3.33;;;;;;;20.69;69.21;99878.88;10377063;28;20565;-70
2023/07/18 21:29:09;;;;;;;21.92;4.38;;;;;;;20.96;69.16;99912.25;10378206;28;20132;-71
2023/07/18 21:34:10;;;;;;;25.05;4.47;;;;;;;21.02;68.92;99907.75;10378068;28;20100;-69
2023/07/18 21:39:11;;;;;;;13.05;3.13;;;;;;;21.25;68.38;99911.31;10376471;28;20049;-70
2023/07/18 21:44:12;;;;;;;10.80;3.33;;;;;;;21.31;68.10;99916.53;10383877;28;20033;-70
2023/07/18 21:49:13;;;;;;;22.58;3.88;;;;;;;21.40;68.62;99923.19;10408432;28;20051;-70
2023/07/18 21:54:13;;;;;;;22.45;4.40;;;;;;;21.44;68.68;99923.47;10402517;28;20037;-70
2023/07/18 21:59:14;;;;;;;16.05;4.45;;;;;;;21.26;68.14;99881.34;10417039;28;20132;-70
2023/07/18 22:04:15;;;;;;;18.33;4.15;;;;;;;21.50;67.90;99908.97;10413418;28;20042;-70
2023/07/18 22:09:16;;;;;;;11.00;4.28;;;;;;;21.49;67.67;99909.25;10391245;28;20072;-70
2023/07/18 22:14:16;;;;;;;15.18;4.03;;;;;;;21.49;68.22;99914.66;10416134;28;20041;-70
2023/07/18 22:19:17;;;;;;;33.83;4.75;;;;;;;21.19;68.59;99878.00;10415165;28;20083;-69
2023/07/18 22:24:18;;;;;;;12.48;5.18;;;;;;;21.09;68.69;99870.59;10416202;28;20087;-70
2023/07/18 22:29:19;;;;;;;19.25;8.27;;;;;;;20.90;68.18;99847.63;10416690;28;20051;-70
2023/07/18 22:34:20;;;;;;;23.33;8.30;;;;;;;21.13;67.67;99906.00;10415544;28;20048;-70
2023/07/18 22:39:21;;;;;;;32.88;8.88;;;;;;;21.03;68.08;99903.16;10415521;28;20049;-70
2023/07/18 22:44:22;;;;;;;19.05;8.02;;;;;;;21.02;68.99;99909.63;10414174;28;20079;-70
2023/07/18 22:49:25;;;;;;;20.02;8.13;;;;;;;20.55;69.41;99842.50;10414842;28;20420;-70
2023/07/18 22:54:25;;;;;;;21.40;7.25;;;;;;;20.80;69.97;99902.28;10414012;28;20405;-70
2023/07/18 22:59:28;;;;;;;14.50;7.03;;;;;;;20.32;70.23;99862.34;10414291;28;20054;-70
2023/07/18 23:04:29;;;;;;;19.02;6.13;;;;;;;20.43;70.77;99913.53;10415310;28;20052;-70
2023/07/18 23:09:31;;;;;;;17.40;6.28;;;;;;;20.17;71.11;99885.28;10414421;28;20037;-70